createdAt,value
2022-12-15T00:02:36.089Z,-5.28
2022-12-15T00:05:34.331Z,-5.25
2022-12-15T00:08:30.011Z,-5.25
2022-12-15T00:11:15.892Z,-5.23
2022-12-15T00:14:01.772Z,-5.21
2022-12-15T00:16:47.083Z,-5.20
2022-12-15T00:19:32.432Z,-5.17
2022-12-15T00:22:17.976Z,-5.19
2022-12-15T00:25:03.573Z,-5.15
2022-12-15T00:27:49.355Z,-5.11
2022-12-15T00:30:34.824Z,-5.09
2022-12-15T00:33:27.599Z,-5.06
2022-12-15T00:36:14.696Z,-5.02
2022-12-15T00:38:45.083Z,-4.98
2022-12-15T00:41:17.344Z,-4.97
2022-12-15T00:43:45.149Z,-5.00
2022-12-15T00:46:31.264Z,-5.03
2022-12-15T00:48:59.637Z,-5.03
2022-12-15T00:51:47.374Z,-5.05
2022-12-15T00:54:33.016Z,-5.09
2022-12-15T00:57:19.756Z,-5.12
2022-12-15T01:00:06.387Z,-5.15
2022-12-15T01:02:52.250Z,-5.19
2022-12-15T01:05:38.040Z,-5.35
2022-12-15T01:08:23.548Z,-5.40
2022-12-15T01:11:09.081Z,-5.46
2022-12-15T01:13:54.642Z,-5.39
2022-12-15T01:16:39.920Z,-5.44
2022-12-15T01:19:27.263Z,-5.50
2022-12-15T01:21:54.589Z,-5.50
2022-12-15T01:24:22.768Z,-5.51
2022-12-15T01:26:49.681Z,-5.49
2022-12-15T01:29:16.629Z,-5.52
2022-12-15T01:31:44.280Z,-5.50
2022-12-15T01:34:11.245Z,-5.51
2022-12-15T01:36:38.206Z,-5.49
2022-12-15T01:39:05.266Z,-5.46
2022-12-15T01:41:32.109Z,-5.47
2022-12-15T01:44:19.205Z,-5.38
2022-12-15T01:46:49.365Z,-5.34
2022-12-15T01:49:22.481Z,-5.31
2022-12-15T01:51:54.504Z,-5.23
2022-12-15T01:54:25.587Z,-5.18
2022-12-15T01:56:56.988Z,-5.13
2022-12-15T01:59:31.519Z,-5.12
2022-12-15T02:01:58.584Z,-5.06
2022-12-15T02:04:27.100Z,-5.01
2022-12-15T02:06:54.421Z,-4.92
2022-12-15T02:09:23.802Z,-4.88
2022-12-15T02:12:41.809Z,-4.81
2022-12-15T02:15:11.706Z,-4.75
2022-12-15T02:17:56.858Z,-4.71
2022-12-15T02:20:49.851Z,-4.69
2022-12-15T02:24:02.773Z,-4.62
2022-12-15T02:26:41.775Z,-4.59
2022-12-15T02:29:22.253Z,-4.53
2022-12-15T02:32:20.340Z,-4.50
2022-12-15T02:34:54.894Z,-4.46
2022-12-15T02:37:31.992Z,-4.47
2022-12-15T02:39:59.327Z,-4.50
2022-12-15T02:42:28.731Z,-4.49
2022-12-15T02:45:28.316Z,-4.49
2022-12-15T02:48:04.539Z,-4.42
2022-12-15T02:50:40.575Z,-4.40
2022-12-15T02:53:26.252Z,-4.37
2022-12-15T02:56:11.234Z,-4.34
2022-12-15T02:58:44.661Z,-4.37
2022-12-15T03:01:30.877Z,-4.39
2022-12-15T03:04:00.821Z,-4.48
2022-12-15T03:06:28.725Z,-4.54
2022-12-15T03:08:55.551Z,-4.65
2022-12-15T03:11:22.811Z,-4.63
2022-12-15T03:13:49.939Z,-4.63
2022-12-15T03:16:17.543Z,-4.59
2022-12-15T03:18:44.394Z,-4.59
2022-12-15T03:21:11.240Z,-4.55
2022-12-15T03:23:38.656Z,-4.51
2022-12-15T03:26:06.640Z,-4.47
2022-12-15T03:28:34.258Z,-4.45
2022-12-15T03:31:01.180Z,-4.42
2022-12-15T03:33:33.267Z,-4.38
2022-12-15T03:36:00.981Z,-4.36
2022-12-15T03:38:27.918Z,-4.34
2022-12-15T03:40:54.788Z,-4.28
2022-12-15T03:43:21.644Z,-4.24
2022-12-15T03:45:48.516Z,-4.24
2022-12-15T03:48:15.370Z,-4.17
2022-12-15T03:50:42.152Z,-4.13
2022-12-15T03:53:09.008Z,-4.10
2022-12-15T03:55:36.017Z,-4.06
2022-12-15T03:58:02.993Z,-4.04
2022-12-15T04:00:30.275Z,-4.08
2022-12-15T04:02:57.228Z,-4.11
2022-12-15T04:05:29.634Z,-4.13
2022-12-15T04:07:58.195Z,-4.13
2022-12-15T04:10:31.918Z,-4.15
2022-12-15T04:13:02.703Z,-4.14
2022-12-15T04:15:29.947Z,-4.13
2022-12-15T04:17:56.988Z,-4.08
2022-12-15T04:20:24.822Z,-4.05
2022-12-15T04:22:51.879Z,-4.02
2022-12-15T04:25:40.576Z,-4.02
2022-12-15T04:28:27.075Z,-3.97
2022-12-15T04:31:26.219Z,-3.93
2022-12-15T04:34:15.193Z,-3.89
2022-12-15T04:37:03.054Z,-3.85
2022-12-15T04:39:49.065Z,-3.86
2022-12-15T04:42:35.014Z,-3.83
2022-12-15T04:45:23.258Z,-3.85
2022-12-15T04:48:08.414Z,-3.83
2022-12-15T04:50:54.009Z,-3.84
2022-12-15T04:53:39.955Z,-3.82
2022-12-15T04:56:34.268Z,-3.82
2022-12-15T04:59:20.020Z,-3.83
2022-12-15T05:02:08.764Z,-3.81
2022-12-15T05:04:54.642Z,-3.82
2022-12-15T05:07:40.130Z,-3.82
2022-12-15T05:10:25.900Z,-3.86
2022-12-15T05:13:11.337Z,-3.85
2022-12-15T05:15:56.949Z,-3.89
2022-12-15T05:18:45.269Z,-3.92
2022-12-15T05:21:30.747Z,-3.93
2022-12-15T05:24:16.196Z,-3.91
2022-12-15T05:27:01.783Z,-3.97
2022-12-15T05:29:47.149Z,-3.98
2022-12-15T05:32:13.994Z,-3.94
2022-12-15T05:34:40.750Z,-3.92
2022-12-15T05:37:07.584Z,-3.96
2022-12-15T05:39:34.694Z,-3.91
2022-12-15T05:42:01.692Z,-3.93
2022-12-15T05:44:28.709Z,-3.97
2022-12-15T05:46:55.584Z,-3.93
2022-12-15T05:49:23.539Z,-3.96
2022-12-15T05:51:50.947Z,-3.94
2022-12-15T05:54:19.742Z,-3.95
2022-12-15T05:56:50.445Z,-3.94
2022-12-15T05:59:19.365Z,-3.89
2022-12-15T06:01:46.510Z,-3.85
2022-12-15T06:04:14.245Z,-3.83
2022-12-15T06:06:41.944Z,-3.83
2022-12-15T06:09:09.391Z,-3.83
2022-12-15T06:11:37.633Z,-3.88
2022-12-15T06:14:04.764Z,-3.87
2022-12-15T06:16:31.990Z,-3.89
2022-12-15T06:19:01.721Z,-3.85
2022-12-15T06:21:35.492Z,-3.82
2022-12-15T06:24:02.758Z,-3.79
2022-12-15T06:26:33.796Z,-3.75
2022-12-15T06:29:05.499Z,-3.74
2022-12-15T06:31:33.264Z,-3.72
2022-12-15T06:34:06.185Z,-3.68
2022-12-15T06:36:33.403Z,-3.68
2022-12-15T06:39:01.669Z,-3.70
2022-12-15T06:41:30.510Z,-3.70
2022-12-15T06:43:58.268Z,-3.73
2022-12-15T06:49:21.806Z,-3.82
2022-12-15T06:51:50.023Z,-3.83
2022-12-15T06:54:16.804Z,-3.83
2022-12-15T06:56:43.998Z,-3.84
2022-12-15T06:59:12.121Z,-3.83
2022-12-15T07:01:39.675Z,-3.80
2022-12-15T07:04:06.884Z,-3.85
2022-12-15T07:06:38.471Z,-3.83
2022-12-15T07:09:13.837Z,-3.81
2022-12-15T07:11:40.796Z,-3.83
2022-12-15T07:14:07.711Z,-3.83
2022-12-15T07:16:34.775Z,-3.85
2022-12-15T07:19:01.894Z,-3.78
2022-12-15T07:21:28.778Z,-3.74
2022-12-15T07:23:57.074Z,-3.68
2022-12-15T07:26:24.580Z,-3.64
2022-12-15T07:28:51.882Z,-3.57
2022-12-15T07:31:18.795Z,-3.53
2022-12-15T07:33:45.852Z,-3.52
2022-12-15T07:36:13.323Z,-3.51
2022-12-15T07:38:40.142Z,-3.56
2022-12-15T07:41:08.388Z,-3.58
2022-12-15T07:43:36.350Z,-3.50
2022-12-15T07:46:04.683Z,-3.46
2022-12-15T07:48:31.811Z,-3.37
2022-12-15T07:51:07.336Z,-3.31
2022-12-15T07:53:36.278Z,-3.26
2022-12-15T07:56:07.917Z,-3.22
2022-12-15T07:58:35.770Z,-3.18
2022-12-15T08:01:05.153Z,-3.22
2022-12-15T08:03:32.854Z,-3.12
2022-12-15T08:06:06.570Z,-3.07
2022-12-15T08:08:35.034Z,-3.10
2022-12-15T08:11:06.780Z,-3.08
2022-12-15T08:16:24.816Z,-3.00
2022-12-15T08:18:51.750Z,-2.91
2022-12-15T08:21:19.052Z,-2.89
2022-12-15T08:23:46.099Z,-2.84
2022-12-15T08:26:15.684Z,-2.80
2022-12-15T08:28:43.449Z,-2.75
2022-12-15T08:31:17.489Z,-2.72
2022-12-15T08:33:45.732Z,-2.66
2022-12-15T08:36:15.619Z,-2.62
2022-12-15T08:38:43.830Z,-2.61
2022-12-15T08:41:19.881Z,-2.58
2022-12-15T08:43:49.225Z,-2.58
2022-12-15T08:46:18.312Z,-2.59
2022-12-15T08:48:45.848Z,-2.56
2022-12-15T08:51:13.291Z,-2.53
2022-12-15T08:53:40.269Z,-2.54
2022-12-15T08:56:10.388Z,-2.58
2022-12-15T08:58:37.267Z,-2.64
2022-12-15T09:01:07.121Z,-2.69
2022-12-15T09:03:35.947Z,-2.79
2022-12-15T09:06:04.814Z,-2.82
2022-12-15T09:08:31.797Z,-2.87
2022-12-15T09:10:59.118Z,-2.85
2022-12-15T09:13:27.837Z,-2.82
2022-12-15T09:16:13.308Z,-2.75
2022-12-15T09:18:43.453Z,-2.68
2022-12-15T09:21:11.587Z,-2.69
2022-12-15T09:23:39.513Z,-2.68
2022-12-15T09:26:12.680Z,-2.65
2022-12-15T09:28:39.543Z,-2.63
2022-12-15T09:31:14.953Z,-2.62
2022-12-15T09:33:43.434Z,-2.59
2022-12-15T09:36:13.285Z,-2.58
2022-12-15T09:38:41.857Z,-2.67
2022-12-15T09:41:17.854Z,-2.68
2022-12-15T09:43:53.855Z,-2.71
2022-12-15T09:46:27.734Z,-2.67
2022-12-15T09:48:56.032Z,-2.65
2022-12-15T09:51:32.130Z,-2.61
2022-12-15T09:53:59.701Z,-2.53
2022-12-15T09:56:39.002Z,-2.51
2022-12-15T09:59:20.715Z,-2.42
2022-12-15T10:01:52.801Z,-2.43
2022-12-15T10:04:26.805Z,-2.38
2022-12-15T10:07:42.127Z,-2.42
2022-12-15T10:10:30.275Z,-2.43
2022-12-15T10:13:05.250Z,-2.38
2022-12-15T10:15:42.148Z,-2.22
2022-12-15T10:18:22.813Z,-2.14
2022-12-15T10:20:53.094Z,-2.15
2022-12-15T10:23:20.487Z,-2.23
2022-12-15T10:25:51.355Z,-2.20
2022-12-15T10:28:43.345Z,-2.07
2022-12-15T10:31:20.333Z,-2.00
2022-12-15T10:33:56.326Z,-2.05
2022-12-15T10:36:23.736Z,-2.03
2022-12-15T10:38:50.858Z,-2.01
2022-12-15T10:41:20.431Z,-1.89
2022-12-15T10:43:50.333Z,-1.77
2022-12-15T10:46:19.074Z,-1.68
2022-12-15T10:48:49.235Z,-1.56
2022-12-15T10:51:32.565Z,-1.39
2022-12-15T10:54:13.209Z,-1.01
2022-12-15T10:57:04.565Z,-0.62
2022-12-15T10:59:36.769Z,-0.23
2022-12-15T11:02:24.396Z,0.40
2022-12-15T11:05:01.293Z,1.03
2022-12-15T11:07:55.628Z,1.43
2022-12-15T11:10:50.072Z,1.88
2022-12-15T11:13:23.894Z,2.28
2022-12-15T11:15:56.419Z,2.59
2022-12-15T11:18:29.237Z,2.92
2022-12-15T11:21:12.457Z,3.17
2022-12-15T11:23:50.878Z,3.33
2022-12-15T11:26:40.330Z,3.45
2022-12-15T11:29:28.005Z,3.72
2022-12-15T11:31:57.953Z,3.93
2022-12-15T11:34:46.184Z,4.19
2022-12-15T11:37:52.042Z,4.51
2022-12-15T11:40:40.717Z,4.80
2022-12-15T11:43:41.677Z,5.05
2022-12-15T11:46:21.016Z,5.15
2022-12-15T11:49:12.171Z,5.24
2022-12-15T11:51:49.681Z,5.44
2022-12-15T11:54:44.102Z,5.58
2022-12-15T11:57:54.999Z,5.54
2022-12-15T12:00:23.360Z,5.57
2022-12-15T12:03:00.872Z,5.74
2022-12-15T12:05:42.664Z,5.84
2022-12-15T12:08:51.207Z,5.92
2022-12-15T12:11:34.869Z,5.73
2022-12-15T12:14:18.104Z,5.43
2022-12-15T12:17:01.200Z,5.16
2022-12-15T12:19:35.318Z,4.86
2022-12-15T12:22:26.348Z,4.49
2022-12-15T12:25:04.109Z,4.21
2022-12-15T12:27:45.351Z,4.09
2022-12-15T12:30:22.663Z,3.82
2022-12-15T12:33:09.175Z,3.38
2022-12-15T12:35:45.519Z,2.89
2022-12-15T12:38:13.836Z,2.34
2022-12-15T12:40:40.589Z,1.88
2022-12-15T12:43:36.388Z,1.34
2022-12-15T12:46:15.258Z,1.02
2022-12-15T12:48:56.254Z,0.80
2022-12-15T12:51:38.129Z,0.85
2022-12-15T12:54:40.154Z,0.99
2022-12-15T12:57:12.842Z,1.30
2022-12-15T12:59:49.166Z,1.58
2022-12-15T13:02:38.217Z,1.95
2022-12-15T13:05:34.209Z,2.43
2022-12-15T13:08:05.137Z,2.99
2022-12-15T13:10:34.221Z,3.58
2022-12-15T13:13:38.598Z,4.34
2022-12-15T13:16:24.008Z,4.83
2022-12-15T13:19:08.583Z,5.35
2022-12-15T13:21:44.547Z,5.77
2022-12-15T13:24:35.671Z,6.24
2022-12-15T13:27:08.463Z,6.42
2022-12-15T13:29:37.320Z,6.38
2022-12-15T13:32:04.423Z,6.24
2022-12-15T13:34:41.056Z,5.99
2022-12-15T13:37:46.964Z,5.52
2022-12-15T13:40:52.507Z,5.04
2022-12-15T13:43:28.077Z,4.60
2022-12-15T13:46:10.486Z,4.11
2022-12-15T13:48:44.709Z,3.66
2022-12-15T13:51:24.363Z,3.26
2022-12-15T13:54:25.027Z,2.78
2022-12-15T13:57:01.275Z,2.28
2022-12-15T13:59:30.915Z,1.93
2022-12-15T14:01:57.886Z,1.66
2022-12-15T14:04:26.255Z,1.41
2022-12-15T14:07:01.681Z,1.19
2022-12-15T14:09:36.423Z,0.97
2022-12-15T14:12:07.468Z,0.79
2022-12-15T14:14:36.974Z,0.58
2022-12-15T14:17:15.438Z,0.39
2022-12-15T14:19:46.433Z,0.25
2022-12-15T14:22:30.677Z,0.07
2022-12-15T14:25:04.290Z,-0.10
2022-12-15T14:27:34.045Z,-0.22
2022-12-15T14:30:30.068Z,-0.46
2022-12-15T14:33:08.333Z,-0.68
2022-12-15T14:35:42.371Z,-0.83
2022-12-15T14:38:26.282Z,-0.89
2022-12-15T14:40:57.240Z,-1.01
2022-12-15T14:43:30.002Z,-1.10
2022-12-15T14:46:11.187Z,-1.16
2022-12-15T14:48:43.216Z,-1.39
2022-12-15T14:51:12.931Z,-1.52
2022-12-15T14:53:43.186Z,-1.64
2022-12-15T14:56:14.656Z,-1.70
2022-12-15T14:58:42.221Z,-1.82
2022-12-15T15:01:24.385Z,-1.90
2022-12-15T15:04:01.546Z,-2.02
2022-12-15T15:06:52.045Z,-2.09
2022-12-15T15:09:42.063Z,-2.22
2022-12-15T15:12:16.493Z,-2.27
2022-12-15T15:15:03.292Z,-2.35
2022-12-15T15:17:45.618Z,-2.45
2022-12-15T15:20:18.331Z,-2.55
2022-12-15T15:22:46.989Z,-2.60
2022-12-15T15:25:40.250Z,-2.71
2022-12-15T15:28:16.017Z,-2.79
2022-12-15T15:30:48.613Z,-2.94
2022-12-15T15:33:17.083Z,-3.10
2022-12-15T15:35:46.724Z,-3.20
2022-12-15T15:38:20.468Z,-3.26
2022-12-15T15:40:51.552Z,-3.31
2022-12-15T15:43:19.407Z,-3.38
2022-12-15T15:45:48.508Z,-3.46
2022-12-15T15:48:27.082Z,-3.51
2022-12-15T15:50:55.970Z,-3.54
2022-12-15T15:53:25.294Z,-3.58
2022-12-15T15:55:55.289Z,-3.64
2022-12-15T15:58:22.438Z,-3.78
2022-12-15T16:00:50.166Z,-3.83
2022-12-15T16:03:17.807Z,-3.94
2022-12-15T16:05:45.229Z,-3.94
2022-12-15T16:08:19.769Z,-3.93
2022-12-15T16:10:49.091Z,-3.94
2022-12-15T16:13:25.949Z,-3.93
2022-12-15T16:15:54.858Z,-3.92
2022-12-15T16:18:22.188Z,-3.92
2022-12-15T16:20:51.971Z,-3.94
2022-12-15T16:23:22.713Z,-3.92
2022-12-15T16:25:55.390Z,-3.96
2022-12-15T16:28:25.193Z,-3.96
2022-12-15T16:30:52.601Z,-3.92
2022-12-15T16:33:19.719Z,-3.90
2022-12-15T16:35:50.955Z,-3.90
2022-12-15T16:38:31.025Z,-3.94
2022-12-15T16:41:05.626Z,-3.94
2022-12-15T16:43:38.167Z,-3.98
2022-12-15T16:46:07.532Z,-4.02
2022-12-15T16:48:35.251Z,-3.96
2022-12-15T16:51:07.278Z,-3.96
2022-12-15T16:53:39.294Z,-4.03
2022-12-15T16:56:08.427Z,-4.19
2022-12-15T16:58:36.596Z,-4.35
2022-12-15T17:01:04.233Z,-4.34
2022-12-15T17:03:31.748Z,-4.29
2022-12-15T17:06:02.133Z,-4.24
2022-12-15T17:08:43.088Z,-4.20
2022-12-15T17:11:18.737Z,-4.14
2022-12-15T17:13:50.775Z,-4.07
2022-12-15T17:16:19.886Z,-4.03
2022-12-15T17:18:47.799Z,-4.01
2022-12-15T17:21:21.982Z,-4.02
2022-12-15T17:23:52.649Z,-3.98
2022-12-15T17:26:29.076Z,-3.94
2022-12-15T17:29:01.558Z,-3.92
2022-12-15T17:31:34.667Z,-3.87
2022-12-15T17:34:20.036Z,-3.87
2022-12-15T17:36:47.167Z,-3.90
2022-12-15T17:39:14.746Z,-3.83
2022-12-15T17:44:34.178Z,-3.85
2022-12-15T17:47:05.724Z,-3.88
2022-12-15T17:49:35.935Z,-3.91
2022-12-15T17:52:21.226Z,-3.90
2022-12-15T17:54:49.911Z,-3.86
2022-12-15T17:57:17.014Z,-3.80
2022-12-15T17:59:44.043Z,-3.77
2022-12-15T18:02:15.024Z,-3.74
2022-12-15T18:04:43.172Z,-3.73
2022-12-15T18:07:18.906Z,-3.75
2022-12-15T18:09:46.224Z,-3.76
2022-12-15T18:12:22.503Z,-3.74
2022-12-15T18:14:49.842Z,-3.71
2022-12-15T18:17:16.954Z,-3.68
2022-12-15T18:19:44.186Z,-3.61
2022-12-15T18:22:23.770Z,-3.51
2022-12-15T18:24:53.229Z,-3.47
2022-12-15T18:27:23.848Z,-3.45
2022-12-15T18:29:51.089Z,-3.41
2022-12-15T18:32:19.013Z,-3.30
2022-12-15T18:34:46.899Z,-3.28
2022-12-15T18:37:19.225Z,-3.26
2022-12-15T18:39:47.477Z,-3.26
2022-12-15T18:42:20.377Z,-3.27
2022-12-15T18:44:50.363Z,-3.28
2022-12-15T18:47:22.876Z,-3.23
2022-12-15T18:49:50.130Z,-3.20
2022-12-15T18:52:20.126Z,-3.10
2022-12-15T18:54:51.626Z,-3.05
2022-12-15T18:57:27.782Z,-3.00
2022-12-15T19:00:01.868Z,-2.96
2022-12-15T19:02:29.145Z,-2.92
2022-12-15T19:04:56.360Z,-2.88
2022-12-15T19:07:23.931Z,-2.84
2022-12-15T19:09:51.192Z,-2.80
2022-12-15T19:12:18.696Z,-2.72
2022-12-15T19:14:47.765Z,-2.68
2022-12-15T19:17:41.311Z,-2.57
2022-12-15T19:20:38.448Z,-2.47
2022-12-15T19:23:07.063Z,-2.38
2022-12-15T19:25:35.036Z,-2.26
2022-12-15T19:28:02.305Z,-2.18
2022-12-15T19:30:31.386Z,-2.05
2022-12-15T19:32:58.722Z,-2.08
2022-12-15T19:35:27.533Z,-1.94
2022-12-15T19:37:56.980Z,-1.91
2022-12-15T19:40:30.639Z,-1.86
2022-12-15T19:42:58.553Z,-1.82
2022-12-15T19:45:30.742Z,-1.77
2022-12-15T19:47:58.436Z,-1.74
2022-12-15T19:50:36.689Z,-1.71
2022-12-15T19:53:26.769Z,-1.68
2022-12-15T19:55:57.310Z,-1.62
2022-12-15T19:58:31.503Z,-1.59
2022-12-15T20:01:05.901Z,-1.54
2022-12-15T20:03:34.469Z,-1.50
2022-12-15T20:06:03.009Z,-1.42
2022-12-15T20:08:34.717Z,-1.33
2022-12-15T20:11:01.815Z,-1.27
2022-12-15T20:13:28.743Z,-1.27
2022-12-15T20:15:55.939Z,-1.28
2022-12-15T20:18:22.704Z,-1.20
2022-12-15T20:20:49.996Z,-1.15
2022-12-15T20:23:26.331Z,-1.11
2022-12-15T20:25:54.956Z,-1.05
2022-12-15T20:28:27.569Z,-1.02
2022-12-15T20:30:56.326Z,-0.97
2022-12-15T20:33:23.622Z,-0.95
2022-12-15T20:35:51.226Z,-0.89
2022-12-15T20:38:33.131Z,-0.92
2022-12-15T20:41:01.726Z,-0.86
2022-12-15T20:43:35.074Z,-0.84
2022-12-15T20:46:07.068Z,-0.84
2022-12-15T20:48:36.768Z,-0.84
2022-12-15T20:51:09.270Z,-0.77
2022-12-15T20:53:37.699Z,-0.78
2022-12-15T20:56:04.904Z,-0.77
2022-12-15T20:58:33.335Z,-0.76
2022-12-15T21:01:00.529Z,-0.76
2022-12-15T21:03:34.177Z,-0.78
2022-12-15T21:06:01.215Z,-0.77
2022-12-15T21:08:31.316Z,-0.76
2022-12-15T21:11:07.362Z,-0.79
2022-12-15T21:13:35.494Z,-0.79
2022-12-15T21:16:02.610Z,-0.80
2022-12-15T21:19:03.969Z,-0.81
2022-12-15T21:21:32.360Z,-0.82
2022-12-15T21:24:01.299Z,-0.78
2022-12-15T21:26:28.805Z,-0.79
2022-12-15T21:28:59.184Z,-0.79
2022-12-15T21:31:26.574Z,-0.81
2022-12-15T21:33:53.544Z,-0.79
2022-12-15T21:36:22.363Z,-0.81
2022-12-15T21:38:52.586Z,-0.80
2022-12-15T21:41:22.473Z,-0.81
2022-12-15T21:43:50.062Z,-0.81
2022-12-15T21:46:27.560Z,-0.81
2022-12-15T21:49:14.575Z,-0.79
2022-12-15T21:51:44.439Z,-0.77
2022-12-15T21:54:18.664Z,-0.77
2022-12-15T21:56:47.522Z,-0.74
2022-12-15T21:59:17.279Z,-0.72
2022-12-15T22:01:44.382Z,-0.68
2022-12-15T22:04:36.523Z,-0.66
2022-12-15T22:07:05.960Z,-0.68
2022-12-15T22:09:32.704Z,-0.69
2022-12-15T22:11:59.526Z,-0.70
2022-12-15T22:14:33.174Z,-0.70
2022-12-15T22:17:02.195Z,-0.71
2022-12-15T22:19:29.016Z,-0.72
2022-12-15T22:21:55.780Z,-0.72
2022-12-15T22:24:22.576Z,-0.74
2022-12-15T22:26:49.451Z,-0.73
2022-12-15T22:29:19.436Z,-0.73
2022-12-15T22:31:47.895Z,-0.73
2022-12-15T22:34:20.520Z,-0.73
2022-12-15T22:36:48.022Z,-0.73
2022-12-15T22:39:15.080Z,-0.75
2022-12-15T22:41:47.811Z,-0.76
2022-12-15T22:44:22.774Z,-0.76
2022-12-15T22:46:51.426Z,-0.77
2022-12-15T22:49:21.143Z,-0.78
2022-12-15T22:51:48.392Z,-0.81
2022-12-15T22:54:19.398Z,-0.79
2022-12-15T22:56:49.267Z,-0.78
2022-12-15T22:59:26.154Z,-0.78
2022-12-15T23:01:53.391Z,-0.78
2022-12-15T23:04:21.656Z,-0.78
2022-12-15T23:06:48.766Z,-0.76
2022-12-15T23:09:15.581Z,-0.76
2022-12-15T23:11:42.391Z,-0.75
2022-12-15T23:14:12.707Z,-0.74
2022-12-15T23:16:40.030Z,-0.74
2022-12-15T23:19:08.103Z,-0.71
2022-12-15T23:21:36.121Z,-0.71
2022-12-15T23:24:02.941Z,-0.69
2022-12-15T23:26:29.683Z,-0.69
2022-12-15T23:28:56.512Z,-0.68
2022-12-15T23:31:23.434Z,-0.69
2022-12-15T23:33:52.143Z,-0.68
2022-12-15T23:36:19.209Z,-0.67
2022-12-15T23:38:46.417Z,-0.66
2022-12-15T23:41:17.863Z,-0.65
2022-12-15T23:43:44.964Z,-0.63
2022-12-15T23:46:12.123Z,-0.62
2022-12-15T23:48:41.668Z,-0.64
2022-12-15T23:51:12.755Z,-0.63
2022-12-15T23:53:40.520Z,-0.63
2022-12-15T23:56:10.637Z,-0.63
2022-12-15T23:58:39.539Z,-0.65
